createdAt,value
2018-03-22T00:01:06.316Z,97799.44
2018-03-22T00:03:33.731Z,97804.19
2018-03-22T00:06:01.158Z,97790.92
2018-03-22T00:08:28.600Z,97784.91
2018-03-22T00:10:56.031Z,97787.16
2018-03-22T00:13:23.424Z,97789.75
2018-03-22T00:15:50.846Z,97785.47
2018-03-22T00:18:18.282Z,97783.39
2018-03-22T00:20:45.705Z,97782.06
2018-03-22T00:23:13.184Z,97774.23
2018-03-22T00:25:40.609Z,97769.67
2018-03-22T00:28:08.199Z,97773.60
2018-03-22T00:30:35.652Z,97771.66
2018-03-22T00:33:03.097Z,97760.95
2018-03-22T00:35:30.526Z,97773.14
2018-03-22T00:37:59.092Z,97771.40
2018-03-22T00:40:26.729Z,97770.17
2018-03-22T00:42:54.516Z,97766.27
2018-03-22T00:45:21.999Z,97765.42
2018-03-22T00:47:49.800Z,97766.29
2018-03-22T00:50:17.309Z,97768.55
2018-03-22T00:52:44.828Z,97769.00
2018-03-22T00:55:13.048Z,97768.59
2018-03-22T00:57:40.508Z,97762.55
2018-03-22T01:00:07.927Z,97760.20
2018-03-22T01:02:35.316Z,97763.52
2018-03-22T01:05:02.775Z,97761.61
2018-03-22T01:07:30.405Z,97758.25
2018-03-22T01:09:58.229Z,97755.33
2018-03-22T01:12:25.860Z,97753.70
2018-03-22T01:14:53.458Z,97752.38
2018-03-22T01:17:20.881Z,97747.66
2018-03-22T01:19:48.868Z,97752.92
2018-03-22T01:22:16.327Z,97742.18
2018-03-22T01:24:44.058Z,97743.88
2018-03-22T01:27:11.989Z,97739.95
2018-03-22T01:29:39.405Z,97735.66
2018-03-22T01:32:06.829Z,97731.81
2018-03-22T01:34:34.294Z,97728.40
2018-03-22T01:37:02.000Z,97735.92
2018-03-22T01:39:29.455Z,97728.25
2018-03-22T01:41:56.932Z,97726.59
2018-03-22T01:44:24.336Z,97725.30
2018-03-22T01:46:51.728Z,97730.06
2018-03-22T01:49:19.196Z,97723.59
2018-03-22T01:51:46.901Z,97727.00
2018-03-22T01:54:14.402Z,97727.36
2018-03-22T01:56:42.590Z,97727.11
2018-03-22T01:59:10.750Z,97722.02
2018-03-22T02:01:38.170Z,97722.36
2018-03-22T02:04:05.552Z,97723.22
2018-03-22T02:06:32.992Z,97719.80
2018-03-22T02:09:00.695Z,97712.05
2018-03-22T02:11:28.117Z,97713.31
2018-03-22T02:13:55.575Z,97710.75
2018-03-22T02:16:23.005Z,97709.48
2018-03-22T02:18:50.467Z,97711.18
2018-03-22T02:21:17.935Z,97706.50
2018-03-22T02:23:45.406Z,97704.83
2018-03-22T02:26:12.858Z,97703.55
2018-03-22T02:28:40.285Z,97703.98
2018-03-22T02:31:08.445Z,97697.66
2018-03-22T02:33:35.841Z,97697.87
2018-03-22T02:36:03.230Z,97698.91
2018-03-22T02:38:30.629Z,97691.11
2018-03-22T02:40:58.009Z,97697.54
2018-03-22T02:43:25.418Z,97687.27
2018-03-22T02:45:52.920Z,97690.76
2018-03-22T02:48:20.347Z,97692.84
2018-03-22T02:50:47.781Z,97694.08
2018-03-22T02:53:15.173Z,97692.52
2018-03-22T02:55:42.587Z,97693.48
2018-03-22T02:58:09.982Z,97689.23
2018-03-22T03:00:37.435Z,97688.82
2018-03-22T03:03:04.828Z,97691.87
2018-03-22T03:05:32.332Z,97691.83
2018-03-22T03:07:59.742Z,97697.02
2018-03-22T03:10:27.173Z,97695.69
2018-03-22T03:12:54.628Z,97694.41
2018-03-22T03:15:22.059Z,97701.70
2018-03-22T03:17:49.451Z,97700.09
2018-03-22T03:20:17.028Z,97691.50
2018-03-22T03:22:44.709Z,97693.17
2018-03-22T03:25:12.174Z,97695.32
2018-03-22T03:27:40.031Z,97697.86
2018-03-22T03:30:07.476Z,97698.28
2018-03-22T03:32:34.899Z,97690.07
2018-03-22T03:35:02.313Z,97689.25
2018-03-22T03:37:29.774Z,97683.22
2018-03-22T03:39:57.185Z,97684.89
2018-03-22T03:42:24.621Z,97688.77
2018-03-22T03:44:52.210Z,97688.82
2018-03-22T03:47:19.714Z,97690.09
2018-03-22T03:49:47.171Z,97686.38
2018-03-22T03:52:14.744Z,97690.16
2018-03-22T03:54:42.211Z,97688.49
2018-03-22T03:57:09.886Z,97689.77
2018-03-22T03:59:37.319Z,97681.99
2018-03-22T04:02:04.737Z,97685.02
2018-03-22T04:04:32.255Z,97679.91
2018-03-22T04:06:59.711Z,97681.98
2018-03-22T04:09:27.105Z,97680.21
2018-03-22T04:11:55.275Z,97676.37
2018-03-22T04:14:22.697Z,97676.50
2018-03-22T04:16:50.117Z,97683.97
2018-03-22T04:19:17.546Z,97674.41
2018-03-22T04:21:45.025Z,97670.13
2018-03-22T04:24:12.485Z,97664.98
2018-03-22T04:26:39.925Z,97665.80
2018-03-22T04:29:07.373Z,97666.67
2018-03-22T04:31:34.793Z,97655.97
2018-03-22T04:34:02.991Z,97667.98
2018-03-22T04:36:30.413Z,97665.83
2018-03-22T04:38:57.885Z,97665.77
2018-03-22T04:41:25.321Z,97663.25
2018-03-22T04:43:52.746Z,97670.19
2018-03-22T04:46:20.856Z,97661.58
2018-03-22T04:48:48.725Z,97662.39
2018-03-22T04:51:16.211Z,97661.09
2018-03-22T04:53:43.619Z,97659.39
2018-03-22T04:56:11.120Z,97665.92
2018-03-22T04:58:38.517Z,97670.61
2018-03-22T05:01:05.916Z,97670.23
2018-03-22T05:03:33.341Z,97665.99
2018-03-22T05:06:00.808Z,97667.41
2018-03-22T05:08:28.376Z,97661.42
2018-03-22T05:10:55.804Z,97659.33
2018-03-22T05:13:23.493Z,97656.24
2018-03-22T05:15:50.925Z,97658.77
2018-03-22T05:18:18.424Z,97657.48
2018-03-22T05:20:45.810Z,97657.01
2018-03-22T05:23:13.274Z,97664.74
2018-03-22T05:25:40.882Z,97652.21
2018-03-22T05:28:08.334Z,97659.78
2018-03-22T05:30:35.904Z,97658.30
2018-03-22T05:33:03.334Z,97657.79
2018-03-22T05:35:30.787Z,97657.59
2018-03-22T05:37:58.188Z,97663.56
2018-03-22T05:40:25.593Z,97656.36
2018-03-22T05:42:53.049Z,97653.05
2018-03-22T05:45:20.468Z,97654.91
2018-03-22T05:47:47.931Z,97656.11
2018-03-22T05:50:15.321Z,97656.41
2018-03-22T05:52:42.711Z,97660.32
2018-03-22T05:55:10.155Z,97652.16
2018-03-22T05:57:37.570Z,97658.88
2018-03-22T06:00:05.071Z,97654.70
2018-03-22T06:02:32.522Z,97665.11
2018-03-22T06:05:00.292Z,97657.02
2018-03-22T06:07:27.705Z,97658.38
2018-03-22T06:09:55.194Z,97652.27
2018-03-22T06:12:22.588Z,97649.61
2018-03-22T06:14:50.018Z,97648.34
2018-03-22T06:17:17.749Z,97651.93
2018-03-22T06:19:45.190Z,97644.75
2018-03-22T06:22:12.574Z,97645.11
2018-03-22T06:24:39.965Z,97645.40
2018-03-22T06:27:07.418Z,97643.16
2018-03-22T06:29:34.844Z,97650.73
2018-03-22T06:32:02.290Z,97639.83
2018-03-22T06:34:29.810Z,97648.23
2018-03-22T06:36:57.347Z,97646.20
2018-03-22T06:39:25.009Z,97639.08
2018-03-22T06:41:52.441Z,97641.43
2018-03-22T06:44:19.888Z,97641.84
2018-03-22T06:46:47.476Z,97638.16
2018-03-22T06:49:14.909Z,97645.89
2018-03-22T06:51:43.648Z,97647.39
2018-03-22T06:54:11.092Z,97644.73
2018-03-22T06:56:38.543Z,97647.92
2018-03-22T06:59:06.076Z,97648.92
2018-03-22T07:01:33.441Z,97647.08
2018-03-22T07:04:00.874Z,97647.23
2018-03-22T07:06:28.295Z,97649.34
2018-03-22T07:08:55.817Z,97645.22
2018-03-22T07:11:23.207Z,97646.19
2018-03-22T07:13:50.707Z,97651.60
2018-03-22T07:16:18.242Z,97656.85
2018-03-22T07:18:45.662Z,97652.97
2018-03-22T07:21:14.321Z,97650.18
2018-03-22T07:23:42.710Z,97648.43
2018-03-22T07:26:10.178Z,97655.00
2018-03-22T07:28:38.022Z,97653.52
2018-03-22T07:31:05.525Z,97644.59
2018-03-22T07:33:32.988Z,97635.14
2018-03-22T07:36:00.456Z,97638.53
2018-03-22T07:38:27.843Z,97632.89
2018-03-22T07:40:55.250Z,97644.24
2018-03-22T07:43:40.562Z,97646.42
2018-03-22T07:46:08.086Z,97639.18
2018-03-22T07:48:35.527Z,97640.19
2018-03-22T07:51:03.010Z,97648.69
2018-03-22T07:53:30.563Z,97648.03
2018-03-22T07:55:57.960Z,97653.22
2018-03-22T07:58:25.429Z,97650.31
2018-03-22T08:00:52.858Z,97644.01
2018-03-22T08:03:20.286Z,97640.33
2018-03-22T08:05:47.767Z,97648.15
2018-03-22T08:08:15.198Z,97636.07
2018-03-22T08:10:42.628Z,97638.33
2018-03-22T08:13:10.037Z,97640.30
2018-03-22T08:15:37.542Z,97634.89
2018-03-22T08:18:05.503Z,97634.88
2018-03-22T08:20:32.991Z,97630.29
2018-03-22T08:23:00.389Z,97628.48
2018-03-22T08:25:27.864Z,97621.52
2018-03-22T08:27:55.297Z,97626.56
2018-03-22T08:30:22.722Z,97628.56
2018-03-22T08:32:50.170Z,97621.72
2018-03-22T08:35:17.609Z,97622.61
2018-03-22T08:37:45.033Z,97615.73
2018-03-22T08:40:12.443Z,97621.72
2018-03-22T08:42:39.919Z,97608.89
2018-03-22T08:45:07.380Z,97610.81
2018-03-22T08:47:34.909Z,97597.16
2018-03-22T08:50:02.381Z,97600.06
2018-03-22T08:52:29.825Z,97593.96
2018-03-22T08:54:57.275Z,97599.23
2018-03-22T08:57:24.668Z,97592.57
2018-03-22T08:59:52.233Z,97595.13
2018-03-22T09:02:19.641Z,97588.55
2018-03-22T09:04:47.209Z,97591.45
2018-03-22T09:07:14.766Z,97590.64
2018-03-22T09:09:42.230Z,97578.70
2018-03-22T09:12:09.680Z,97579.93
2018-03-22T09:14:37.146Z,97579.22
2018-03-22T09:17:04.536Z,97569.75
2018-03-22T09:19:31.943Z,97569.20
2018-03-22T09:21:59.377Z,97571.58
2018-03-22T09:24:26.914Z,97580.44
2018-03-22T09:27:00.043Z,97580.23
2018-03-22T09:29:27.666Z,97578.73
2018-03-22T09:31:55.129Z,97581.14
2018-03-22T09:34:22.745Z,97574.61
2018-03-22T09:36:50.169Z,97567.92
2018-03-22T09:39:17.646Z,97572.66
2018-03-22T09:41:45.316Z,97561.18
2018-03-22T09:44:12.786Z,97569.68
2018-03-22T09:46:40.220Z,97559.33
2018-03-22T09:49:07.886Z,97558.39
2018-03-22T09:51:35.349Z,97564.70
2018-03-22T09:54:02.851Z,97554.44
2018-03-22T09:56:30.276Z,97550.44
2018-03-22T09:58:57.718Z,97549.31
2018-03-22T10:01:25.179Z,97550.55
2018-03-22T10:03:52.572Z,97543.66
2018-03-22T10:06:20.092Z,97541.89
2018-03-22T10:08:47.525Z,97539.32
2018-03-22T10:11:14.928Z,97538.63
2018-03-22T10:13:43.289Z,97531.86
2018-03-22T10:16:10.901Z,97533.92
2018-03-22T10:18:38.386Z,97529.00
2018-03-22T10:21:05.813Z,97527.62
2018-03-22T10:23:33.233Z,97525.73
2018-03-22T10:26:00.626Z,97515.18
2018-03-22T10:28:28.089Z,97509.58
2018-03-22T10:30:55.748Z,97518.09
2018-03-22T10:33:23.221Z,97518.64
2018-03-22T10:35:50.710Z,97508.66
2018-03-22T10:38:18.825Z,97502.06
2018-03-22T10:40:46.301Z,97507.28
2018-03-22T10:43:13.793Z,97502.44
2018-03-22T10:45:41.256Z,97502.30
2018-03-22T10:48:08.681Z,97500.25
2018-03-22T10:50:36.432Z,97492.63
2018-03-22T10:53:03.904Z,97495.28
2018-03-22T10:55:31.508Z,97491.38
2018-03-22T10:57:59.067Z,97480.58
2018-03-22T11:00:32.013Z,97476.74
2018-03-22T11:03:05.103Z,97475.17
2018-03-22T11:05:32.533Z,97468.33
2018-03-22T11:08:00.023Z,97458.97
2018-03-22T11:10:27.513Z,97464.17
2018-03-22T11:12:55.149Z,97455.64
2018-03-22T11:15:22.685Z,97449.67
2018-03-22T11:17:50.172Z,97456.00
2018-03-22T11:20:17.644Z,97451.64
2018-03-22T11:22:45.048Z,97447.30
2018-03-22T11:25:13.126Z,97436.69
2018-03-22T11:27:40.590Z,97436.67
2018-03-22T11:30:08.255Z,97430.48
2018-03-22T11:32:35.673Z,97427.22
2018-03-22T11:35:03.102Z,97428.66
2018-03-22T11:37:30.642Z,97427.45
2018-03-22T11:39:58.089Z,97417.48
2018-03-22T11:42:25.644Z,97413.64
2018-03-22T11:44:53.102Z,97412.03
2018-03-22T11:47:20.570Z,97403.52
2018-03-22T11:49:48.006Z,97402.80
2018-03-22T11:52:15.517Z,97391.62
2018-03-22T11:54:42.908Z,97391.48
2018-03-22T11:57:10.427Z,97380.94
2018-03-22T11:59:37.863Z,97376.09
2018-03-22T12:02:05.284Z,97370.52
2018-03-22T12:04:32.887Z,97370.34
2018-03-22T12:07:00.355Z,97362.29
2018-03-22T12:09:28.468Z,97364.52
2018-03-22T12:11:55.886Z,97354.48
2018-03-22T12:14:23.428Z,97350.96
2018-03-22T12:16:50.970Z,97355.25
2018-03-22T12:19:18.965Z,97339.04
2018-03-22T12:21:46.458Z,97330.93
2018-03-22T12:24:13.987Z,97329.92
2018-03-22T12:26:41.635Z,97327.50
2018-03-22T12:29:09.198Z,97319.34
2018-03-22T12:31:36.685Z,97316.61
2018-03-22T12:34:04.568Z,97307.30
2018-03-22T12:36:32.005Z,97300.30
2018-03-22T12:38:59.540Z,97303.70
2018-03-22T12:41:27.745Z,97293.72
2018-03-22T12:43:55.517Z,97294.64
2018-03-22T12:46:22.947Z,97290.94
2018-03-22T12:48:50.712Z,97285.80
2018-03-22T12:51:18.217Z,97291.70
2018-03-22T12:53:45.618Z,97281.05
2018-03-22T12:56:13.080Z,97279.38
2018-03-22T12:58:40.471Z,97283.10
2018-03-22T13:01:08.441Z,97278.20
2018-03-22T13:03:35.864Z,97273.55
2018-03-22T13:06:03.328Z,97266.44
2018-03-22T13:08:30.869Z,97273.24
2018-03-22T13:10:58.356Z,97262.36
2018-03-22T13:13:25.850Z,97266.17
2018-03-22T13:15:53.354Z,97266.66
2018-03-22T13:18:20.782Z,97253.75
2018-03-22T13:20:48.176Z,97253.53
2018-03-22T13:23:15.614Z,97251.81
2018-03-22T13:25:43.363Z,97250.16
2018-03-22T13:28:10.841Z,97250.05
2018-03-22T13:30:38.427Z,97242.47
2018-03-22T13:33:05.874Z,97240.78
2018-03-22T13:35:33.271Z,97236.91
2018-03-22T13:38:00.700Z,97228.86
2018-03-22T13:40:28.131Z,97228.30
2018-03-22T13:42:55.676Z,97234.08
2018-03-22T13:45:23.156Z,97228.23
2018-03-22T13:47:50.575Z,97229.20
2018-03-22T13:50:18.593Z,97218.97
2018-03-22T13:52:46.037Z,97218.44
2018-03-22T13:55:13.509Z,97214.77
2018-03-22T13:57:40.962Z,97195.60
2018-03-22T14:00:08.434Z,97197.66
2018-03-22T14:02:35.877Z,97197.53
2018-03-22T14:05:03.406Z,97186.44
2018-03-22T14:07:30.858Z,97191.42
2018-03-22T14:09:58.320Z,97182.58
2018-03-22T14:12:25.750Z,97179.72
2018-03-22T14:14:53.224Z,97173.46
2018-03-22T14:17:20.674Z,97165.65
2018-03-22T14:19:48.362Z,97164.64
2018-03-22T14:22:15.928Z,97157.56
2018-03-22T14:24:43.356Z,97150.83
2018-03-22T14:27:10.792Z,97146.16
2018-03-22T14:29:38.719Z,97148.04
2018-03-22T14:32:07.090Z,97146.11
2018-03-22T14:34:34.650Z,97135.80
2018-03-22T14:37:02.127Z,97134.78
2018-03-22T14:39:29.591Z,97134.13
2018-03-22T14:41:57.068Z,97134.09
2018-03-22T14:44:24.613Z,97133.59
2018-03-22T14:46:52.041Z,97131.82
2018-03-22T14:49:19.468Z,97125.71
2018-03-22T14:51:46.953Z,97129.20
2018-03-22T14:54:14.365Z,97126.36
2018-03-22T14:56:41.824Z,97119.16
2018-03-22T14:59:09.438Z,97112.39
2018-03-22T15:01:36.921Z,97124.57
2018-03-22T15:04:04.367Z,97113.66
2018-03-22T15:06:31.825Z,97115.52
2018-03-22T15:08:59.252Z,97117.20
2018-03-22T15:11:26.722Z,97111.58
2018-03-22T15:13:54.208Z,97114.92
2018-03-22T15:16:21.686Z,97110.63
2018-03-22T15:18:49.387Z,97103.86
2018-03-22T15:21:16.841Z,97106.88
2018-03-22T15:23:44.328Z,97108.23
2018-03-22T15:26:12.774Z,97104.23
2018-03-22T15:28:40.243Z,97105.09
2018-03-22T15:31:07.808Z,97106.36
2018-03-22T15:33:35.364Z,97108.38
2018-03-22T15:36:02.840Z,97109.12
2018-03-22T15:38:30.257Z,97108.02
2018-03-22T15:40:57.786Z,97105.06
2018-03-22T15:43:25.284Z,97113.81
2018-03-22T15:45:52.766Z,97107.06
2018-03-22T15:48:20.806Z,97102.91
2018-03-22T15:50:48.271Z,97093.48
2018-03-22T15:53:15.679Z,97105.19
2018-03-22T15:55:43.173Z,97092.53
2018-03-22T15:58:10.719Z,97106.93
2018-03-22T16:00:38.173Z,97105.41
2018-03-22T16:03:05.604Z,97109.61
2018-03-22T16:05:33.035Z,97108.42
2018-03-22T16:08:01.496Z,97096.36
2018-03-22T16:10:29.182Z,97103.23
2018-03-22T16:12:56.651Z,97104.70
2018-03-22T16:15:24.333Z,97111.13
2018-03-22T16:17:51.850Z,97104.83
2018-03-22T16:20:19.262Z,97098.61
2018-03-22T16:22:46.659Z,97105.13
2018-03-22T16:25:14.099Z,97102.14
2018-03-22T16:27:42.165Z,97105.13
2018-03-22T16:30:09.598Z,97088.20
2018-03-22T16:32:37.034Z,97080.06
2018-03-22T16:35:04.536Z,97093.33
2018-03-22T16:37:32.038Z,97085.20
2018-03-22T16:39:59.502Z,97088.33
2018-03-22T16:42:26.937Z,97092.33
2018-03-22T16:44:54.400Z,97101.78
2018-03-22T16:47:21.842Z,97101.33
2018-03-22T16:49:49.419Z,97100.70
2018-03-22T16:52:17.028Z,97099.70
2018-03-22T16:54:44.717Z,97100.75
2018-03-22T16:57:12.265Z,97098.70
2018-03-22T16:59:39.777Z,97105.78
2018-03-22T17:02:07.152Z,97109.07
2018-03-22T17:04:34.647Z,97107.64
2018-03-22T17:07:02.179Z,97110.18
2018-03-22T17:09:29.877Z,97106.09
2018-03-22T17:11:57.369Z,97102.48
2018-03-22T17:14:24.822Z,97112.57
2018-03-22T17:16:52.241Z,97108.89
2018-03-22T17:19:19.827Z,97110.24
2018-03-22T17:21:47.338Z,97110.28
2018-03-22T17:24:14.760Z,97108.48
2018-03-22T17:26:42.190Z,97110.25
2018-03-22T17:29:09.657Z,97108.00
2018-03-22T17:31:37.086Z,97108.84
2018-03-22T17:34:04.560Z,97102.02
2018-03-22T17:36:32.005Z,97110.86
2018-03-22T17:38:59.482Z,97113.88
2018-03-22T17:41:27.018Z,97116.17
2018-03-22T17:43:54.451Z,97107.31
2018-03-22T17:46:21.863Z,97099.19
2018-03-22T17:48:49.371Z,97112.89
2018-03-22T17:51:16.798Z,97109.58
2018-03-22T17:53:44.263Z,97114.79
2018-03-22T17:56:11.801Z,97123.19
2018-03-22T17:58:39.247Z,97121.40
2018-03-22T18:01:06.631Z,97130.08
2018-03-22T18:03:34.098Z,97130.52
2018-03-22T18:06:01.617Z,97127.16
2018-03-22T18:08:29.125Z,97130.59
2018-03-22T18:10:56.588Z,97131.59
2018-03-22T18:13:24.087Z,97135.49
2018-03-22T18:15:51.636Z,97137.54
2018-03-22T18:18:19.222Z,97142.95
2018-03-22T18:20:46.760Z,97145.73
2018-03-22T18:23:14.364Z,97148.33
2018-03-22T18:25:41.970Z,97149.45
2018-03-22T18:28:09.447Z,97144.88
2018-03-22T18:30:36.928Z,97147.38
2018-03-22T18:33:04.349Z,97149.30
2018-03-22T18:35:31.817Z,97142.36
2018-03-22T18:37:59.200Z,97137.41
2018-03-22T18:40:27.027Z,97132.31
2018-03-22T18:42:54.703Z,97132.44
2018-03-22T18:45:22.217Z,97143.95
2018-03-22T18:47:49.731Z,97143.79
2018-03-22T18:50:17.230Z,97149.55
2018-03-22T18:52:44.758Z,97138.75
2018-03-22T18:55:12.358Z,97134.50
2018-03-22T18:57:40.165Z,97135.33
2018-03-22T19:00:07.564Z,97135.66
2018-03-22T19:02:35.005Z,97140.34
2018-03-22T19:05:02.598Z,97143.58
2018-03-22T19:07:30.042Z,97144.12
2018-03-22T19:09:57.481Z,97153.72
2018-03-22T19:12:25.119Z,97151.42
2018-03-22T19:14:53.276Z,97148.46
2018-03-22T19:17:20.714Z,97152.73
2018-03-22T19:19:48.302Z,97152.80
2018-03-22T19:22:15.713Z,97158.37
2018-03-22T19:24:43.219Z,97150.50
2018-03-22T19:27:10.658Z,97150.25
2018-03-22T19:29:38.109Z,97150.03
2018-03-22T19:32:05.580Z,97149.41
2018-03-22T19:34:32.972Z,97146.48
2018-03-22T19:37:00.380Z,97148.92
2018-03-22T19:39:27.818Z,97148.05
2018-03-22T19:41:56.270Z,97135.87
2018-03-22T19:44:23.683Z,97144.92
2018-03-22T19:46:51.125Z,97142.64
2018-03-22T19:49:18.554Z,97142.55
2018-03-22T19:51:45.988Z,97150.08
2018-03-22T19:54:13.405Z,97146.84
2018-03-22T19:56:40.808Z,97139.27
2018-03-22T19:59:08.237Z,97139.83
2018-03-22T20:01:35.676Z,97137.07
2018-03-22T20:04:03.102Z,97130.46
2018-03-22T20:06:30.517Z,97129.84
2018-03-22T20:08:58.170Z,97125.83
2018-03-22T20:11:25.625Z,97140.46
2018-03-22T20:13:53.988Z,97134.93
2018-03-22T20:16:21.382Z,97126.05
2018-03-22T20:18:48.901Z,97132.64
2018-03-22T20:21:16.311Z,97131.55
2018-03-22T20:23:43.793Z,97123.75
2018-03-22T20:26:11.255Z,97126.23
2018-03-22T20:28:38.616Z,97122.50
2018-03-22T20:31:06.004Z,97116.41
2018-03-22T20:33:33.482Z,97109.53
2018-03-22T20:36:00.872Z,97109.22
2018-03-22T20:38:28.326Z,97110.54
2018-03-22T20:40:55.723Z,97114.23
2018-03-22T20:43:23.189Z,97123.08
2018-03-22T20:45:50.738Z,97110.90
2018-03-22T20:48:18.174Z,97109.91
2018-03-22T20:50:45.649Z,97110.36
2018-03-22T20:53:13.128Z,97108.44
2018-03-22T20:55:40.568Z,97105.66
2018-03-22T20:58:08.045Z,97112.58
2018-03-22T21:00:35.515Z,97118.36
2018-03-22T21:03:02.908Z,97114.78
2018-03-22T21:05:30.378Z,97117.27
2018-03-22T21:07:57.867Z,97114.91
2018-03-22T21:10:25.303Z,97101.11
2018-03-22T21:12:52.775Z,97098.66
2018-03-22T21:15:20.167Z,97096.46
2018-03-22T21:17:47.587Z,97086.50
2018-03-22T21:20:15.438Z,97092.94
2018-03-22T21:22:43.068Z,97094.53
2018-03-22T21:25:10.453Z,97100.32
2018-03-22T21:27:38.056Z,97101.19
2018-03-22T21:30:05.517Z,97093.25
2018-03-22T21:32:33.077Z,97102.84
2018-03-22T21:35:00.542Z,97097.30
2018-03-22T21:37:28.011Z,97096.47
2018-03-22T21:39:55.477Z,97098.09
2018-03-22T21:42:22.930Z,97090.29
2018-03-22T21:44:50.379Z,97084.63
2018-03-22T21:47:29.521Z,97082.80
2018-03-22T21:49:56.993Z,97078.33
2018-03-22T21:52:36.266Z,97076.80
2018-03-22T21:55:03.739Z,97065.16
2018-03-22T21:57:31.162Z,97073.53
2018-03-22T21:59:58.613Z,97068.69
2018-03-22T22:02:26.718Z,97067.59
2018-03-22T22:04:54.187Z,97068.98
2018-03-22T22:07:21.671Z,97062.73
2018-03-22T22:09:49.088Z,97062.19
2018-03-22T22:12:16.524Z,97064.36
2018-03-22T22:14:43.914Z,97059.06
2018-03-22T22:17:11.542Z,97060.83
2018-03-22T22:19:39.047Z,97059.80
2018-03-22T22:22:06.500Z,97061.41
2018-03-22T22:24:34.073Z,97056.93
2018-03-22T22:27:01.842Z,97046.80
2018-03-22T22:29:29.318Z,97048.03
2018-03-22T22:31:56.792Z,97039.80
2018-03-22T22:36:57.893Z,97034.08
2018-03-22T22:39:25.322Z,97038.23
2018-03-22T22:41:52.752Z,97034.39
2018-03-22T22:44:20.140Z,97033.05
2018-03-22T22:46:47.713Z,97030.19
2018-03-22T22:49:15.167Z,97029.58
2018-03-22T22:51:42.571Z,97019.47
2018-03-22T22:54:10.048Z,97016.97
2018-03-22T22:56:37.525Z,97020.29
2018-03-22T22:59:05.845Z,97010.86
2018-03-22T23:01:33.286Z,97004.27
2018-03-22T23:04:00.719Z,97002.09
2018-03-22T23:06:28.167Z,97001.58
2018-03-22T23:08:55.713Z,97002.09
2018-03-22T23:11:23.144Z,97009.27
2018-03-22T23:13:50.565Z,97000.58
2018-03-22T23:16:17.952Z,97001.83
2018-03-22T23:18:45.447Z,96995.52
2018-03-22T23:21:13.013Z,96994.33
2018-03-22T23:23:40.567Z,96991.24
2018-03-22T23:26:07.958Z,96991.62
2018-03-22T23:28:35.462Z,96988.55
2018-03-22T23:31:02.885Z,96988.01
2018-03-22T23:33:30.363Z,96977.91
2018-03-22T23:35:57.777Z,96980.05
2018-03-22T23:38:25.219Z,96970.06
2018-03-22T23:40:52.648Z,96966.98
2018-03-22T23:43:20.068Z,96965.37
2018-03-22T23:45:47.628Z,96965.96
2018-03-22T23:48:15.041Z,96961.77
2018-03-22T23:50:42.568Z,96962.84
2018-03-22T23:53:09.989Z,96956.81
2018-03-22T23:55:37.691Z,96953.91
2018-03-22T23:58:05.079Z,96949.38
